Time;durP1;ratioP1;P1;durP2;ratioP2;P2;SDS_P1;SDS_P2;PMS_P1;PMS_P2;Temp;Humidity;BMP_temperature;BMP_pressure;BME280_temperature;BME280_humidity;BME280_pressure;Samples;Min_cycle;Max_cycle;Signal;HPM_P1;HPM_P2
2023/02/13 00:00:10;;;;;;;;;;;2.20;99.90;2.90;101313.00;;;;347694;28;83473;-92
2023/02/13 00:00:23;;;;;;;;;;;2.20;99.90;3.00;101320.00;;;;344516;28;91310;-91
2023/02/13 00:00:35;;;;;;;;;;;2.20;99.90;3.00;101313.00;;;;346359;28;82479;-92
2023/02/13 00:00:47;;;;;;;;;;;2.20;99.90;2.90;101317.00;;;;347117;27;90559;-91
2023/02/13 00:00:59;;;;;;;;;;;2.20;99.90;2.90;101324.00;;;;347741;28;82526;-92
2023/02/13 00:01:11;;;;;;;;;;;2.20;99.90;3.00;101323.00;;;;348826;27;90374;-92
2023/02/13 00:01:23;;;;;;;;;;;2.20;99.90;3.00;101308.00;;;;345026;28;82455;-92
2023/02/13 00:01:35;;;;;;;;;;;2.20;99.90;2.90;101314.00;;;;347424;28;90520;-93
2023/02/13 00:01:47;;;;;;;;;;;2.20;99.90;2.80;101312.00;;;;346441;28;83383;-91
2023/02/13 00:01:59;;;;;;;;;;;2.20;99.90;2.80;101316.00;;;;348758;27;91163;-93
2023/02/13 00:02:11;;;;;;;;;;;2.20;99.90;2.80;101310.00;;;;347739;28;83578;-91
2023/02/13 00:02:23;;;;;;;;;;;2.20;99.90;3.00;101313.00;;;;348725;27;90315;-91
2023/02/13 00:02:35;;;;;;;;;;;2.20;99.90;3.00;101304.00;;;;347888;28;83410;-92
2023/02/13 00:02:47;;;;;;;;;;;2.20;99.90;2.90;101316.00;;;;348639;27;90576;-91
2023/02/13 00:02:58;;;;;;;;;;;2.20;99.90;2.80;101308.00;;;;348968;27;82590;-92
2023/02/13 00:03:10;;;;;;;;;;;2.20;99.90;2.90;101313.00;;;;344423;28;90880;-91
2023/02/13 00:03:22;;;;;;;;;;;2.20;99.90;2.90;101318.00;;;;347562;28;82492;-92
2023/02/13 00:03:34;;;;;;;;;;;2.20;99.90;2.90;101310.00;;;;348706;27;91300;-92
2023/02/13 00:03:46;;;;;;;;;;;2.20;99.90;3.00;101319.00;;;;347732;28;82532;-91
2023/02/13 00:03:58;;;;;;;;;;;2.20;99.90;2.90;101313.00;;;;347385;28;90297;-91
2023/02/13 00:04:10;;;;;;;;;;;2.20;99.90;2.80;101311.00;;;;348997;27;83468;-91
2023/02/13 00:04:22;;;;;;;;;;;2.10;99.90;3.00;101320.00;;;;345753;28;92431;-92
2023/02/13 00:04:34;;;;;;;;;;;2.10;99.90;3.00;101312.00;;;;346350;28;82477;-92
2023/02/13 00:04:46;;;;;;;;;;;2.10;99.90;3.00;101321.00;;;;345729;28;91508;-92
2023/02/13 00:04:58;;;;;;;;;;;2.20;99.90;2.80;101310.00;;;;347947;28;83599;-92
2023/02/13 00:05:10;;;;;;;;;;;2.10;99.90;2.90;101315.00;;;;348832;27;91747;-91
2023/02/13 00:05:22;;;;;;;;;;;2.10;99.90;2.80;101311.00;;;;346289;28;83293;-92
2023/02/13 00:05:34;;;;;;;;;;;2.10;99.90;2.90;101313.00;;;;347466;28;90125;-91
2023/02/13 00:05:46;;;;;;;;;;;2.10;99.90;2.90;101308.00;;;;347452;28;83567;-92
2023/02/13 00:05:58;;;;;;;;;;;2.10;99.90;2.80;101315.00;;;;345969;28;90595;-92
2023/02/13 00:06:10;;;;;;;;;;;2.10;99.90;2.70;101314.00;;;;346386;28;83403;-91
2023/02/13 00:06:22;;;;;;;;;;;2.10;99.90;2.70;101322.00;;;;344402;28;90687;-92
2023/02/13 00:06:34;;;;;;;;;;;2.10;99.90;2.70;101318.00;;;;349406;27;82368;-92
2023/02/13 00:06:46;;;;;;;;;;;2.10;99.90;2.70;101320.00;;;;346067;28;87663;-93
2023/02/13 00:06:58;;;;;;;;;;;2.10;99.90;2.60;101314.00;;;;347915;28;82460;-92
2023/02/13 00:07:10;;;;;;;;;;;2.10;99.90;2.60;101314.00;;;;345640;28;90534;-92
2023/02/13 00:07:22;;;;;;;;;;;2.10;99.90;2.60;101318.00;;;;346060;28;82379;-92
2023/02/13 00:07:34;;;;;;;;;;;2.10;99.90;2.60;101325.00;;;;347197;28;91538;-92
2023/02/13 00:07:46;;;;;;;;;;;2.00;99.90;2.60;101314.00;;;;347554;28;83394;-91
2023/02/13 00:07:58;;;;;;;;;;;2.00;99.90;2.60;101324.00;;;;345772;28;91308;-92
2023/02/13 00:08:10;;;;;;;;;;;2.00;99.90;2.50;101315.00;;;;346243;28;83514;-93
2023/02/13 00:08:21;;;;;;;;;;;2.00;99.90;2.50;101313.00;;;;345713;28;92766;-92
2023/02/13 00:08:33;;;;;;;;;;;2.00;99.90;2.50;101320.00;;;;347729;28;83403;-91
2023/02/13 00:08:45;;;;;;;;;;;2.00;99.90;2.60;101316.00;;;;345703;28;91051;-92
2023/02/13 00:08:57;;;;;;;;;;;1.90;99.90;2.70;101314.00;;;;346173;28;82490;-91
2023/02/13 00:09:09;;;;;;;;;;;2.00;99.90;2.70;101319.00;;;;347293;28;90526;-92
2023/02/13 00:09:21;;;;;;;;;;;2.00;99.90;2.60;101311.00;;;;346352;28;83520;-91
2023/02/13 00:09:33;;;;;;;;;;;2.00;99.90;2.60;101312.00;;;;347462;28;91462;-92
2023/02/13 00:09:45;;;;;;;;;;;2.00;99.90;2.60;101310.00;;;;346238;28;82471;-92
2023/02/13 00:09:57;;;;;;;;;;;2.00;99.90;2.60;101310.00;;;;344383;28;91073;-92
2023/02/13 00:10:09;;;;;;;;;;;1.90;99.90;2.50;101315.00;;;;346333;28;83479;-93
2023/02/13 00:10:21;;;;;;;;;;;1.90;99.90;2.50;101324.00;;;;345818;28;92753;-92
2023/02/13 00:10:33;;;;;;;;;;;1.90;99.90;2.70;101320.00;;;;345982;28;83428;-92
2023/02/13 00:10:46;;;;;;;;;;;1.90;99.90;2.80;101315.00;;;;347354;28;90077;-92
2023/02/13 00:10:58;;;;;;;;;;;2.00;99.90;2.70;101324.00;;;;346335;28;82549;-92
2023/02/13 00:11:10;;;;;;;;;;;2.00;99.90;2.70;101312.00;;;;345928;28;90320;-92
2023/02/13 00:11:22;;;;;;;;;;;2.00;99.90;2.60;101318.00;;;;346730;28;82354;-92
2023/02/13 00:11:41;;;;;;;;;;;2.00;99.90;2.60;101317.00;;;;347447;28;90574;-92
2023/02/13 00:11:53;;;;;;;;;;;1.90;99.90;2.60;101321.00;;;;346392;28;82599;-92
2023/02/13 00:12:06;;;;;;;;;;;1.90;99.90;2.50;101320.00;;;;347169;28;91067;-91
2023/02/13 00:12:17;;;;;;;;;;;1.90;99.90;2.70;101307.00;;;;346388;28;82311;-92
2023/02/13 00:12:29;;;;;;;;;;;1.90;99.90;2.70;101317.00;;;;347394;28;91194;-91
2023/02/13 00:12:41;;;;;;;;;;;2.00;99.90;2.80;101326.00;;;;349227;27;83345;-92
2023/02/13 00:12:54;;;;;;;;;;;1.90;99.90;2.70;101316.00;;;;347516;27;90287;-91
2023/02/13 00:13:07;;;;;;;;;;;1.90;99.90;2.50;101322.00;;;;347949;28;82498;-91
2023/02/13 00:13:19;;;;;;;;;;;1.90;99.90;2.70;101328.00;;;;345812;28;90397;-91
2023/02/13 00:13:32;;;;;;;;;;;1.90;99.90;2.60;101317.00;;;;346483;28;83355;-90
2023/02/13 00:13:45;;;;;;;;;;;1.90;99.90;2.70;101318.00;;;;348695;27;90078;-92
2023/02/13 00:13:57;;;;;;;;;;;1.90;99.90;2.60;101326.00;;;;349081;27;83393;-91
2023/02/13 00:14:09;;;;;;;;;;;1.90;99.90;2.50;101320.00;;;;347329;28;91309;-91
2023/02/13 00:14:21;;;;;;;;;;;1.90;99.90;2.40;101318.00;;;;346451;28;83442;-91
2023/02/13 00:14:37;;;;;;;;;;;1.90;99.90;2.40;101319.00;;;;347354;28;91439;-91
2023/02/13 00:14:49;;;;;;;;;;;1.90;99.90;2.50;101317.00;;;;349209;27;83391;-91
2023/02/13 00:15:01;;;;;;;;;;;1.90;99.90;2.40;101321.00;;;;347577;28;90232;-91
2023/02/13 00:15:13;;;;;;;;;;;1.90;99.90;2.30;101319.00;;;;347592;28;82626;-92
2023/02/13 00:15:25;;;;;;;;;;;1.90;99.90;2.40;101321.00;;;;347231;28;91562;-91
2023/02/13 00:15:37;;;;;;;;;;;1.90;99.90;2.50;101325.00;;;;346185;28;83351;-91
2023/02/13 00:15:58;;;;;;;;;;;1.90;99.90;2.50;101330.00;;;;348391;27;91194;-91
2023/02/13 00:16:11;;;;;;;;;;;1.90;99.90;2.40;101320.00;;;;347630;28;83310;-91
2023/02/13 00:16:22;;;;;;;;;;;1.80;99.90;2.40;101318.00;;;;347514;28;90462;-92
2023/02/13 00:16:35;;;;;;;;;;;1.80;99.90;2.60;101314.00;;;;346253;28;83536;-90
2023/02/13 00:16:47;;;;;;;;;;;1.90;99.90;2.60;101328.00;;;;348538;27;92801;-91
2023/02/13 00:16:58;;;;;;;;;;;1.90;99.90;2.60;101324.00;;;;348978;27;82591;-91
2023/02/13 00:17:11;;;;;;;;;;;1.90;99.90;2.60;101334.00;;;;347504;28;91558;-91
2023/02/13 00:17:31;;;;;;;;;;;1.90;99.90;2.50;101319.00;;;;349077;27;82459;-91
2023/02/13 00:17:43;;;;;;;;;;;1.90;99.90;2.50;101325.00;;;;347343;28;90978;-91
2023/02/13 00:17:55;;;;;;;;;;;1.80;99.90;2.70;101320.00;;;;349530;27;83456;-91
2023/02/13 00:18:07;;;;;;;;;;;1.90;99.90;2.70;101323.00;;;;347574;28;91672;-91
2023/02/13 00:18:20;;;;;;;;;;;1.80;99.90;2.70;101318.00;;;;346853;28;82400;-91
2023/02/13 00:18:35;;;;;;;;;;;1.90;99.90;2.50;101319.00;;;;347964;28;88280;-90
2023/02/13 00:18:46;;;;;;;;;;;1.90;99.90;2.60;101321.00;;;;349737;27;83484;-91
2023/02/13 00:18:58;;;;;;;;;;;1.90;99.90;2.50;101325.00;;;;345069;28;91541;-91
2023/02/13 00:19:10;;;;;;;;;;;1.90;99.90;2.50;101328.00;;;;348349;28;82446;-91
2023/02/13 00:19:22;;;;;;;;;;;1.80;99.90;2.50;101326.00;;;;347837;28;91544;-91
2023/02/13 00:19:34;;;;;;;;;;;1.80;99.90;2.60;101328.00;;;;345618;28;82522;-91
2023/02/13 00:19:45;;;;;;;;;;;1.80;99.90;2.60;101314.00;;;;346351;28;88669;-91
2023/02/13 00:19:57;;;;;;;;;;;1.90;99.90;2.70;101322.00;;;;349068;27;82392;-91
2023/02/13 00:20:10;;;;;;;;;;;1.90;99.90;2.50;101330.00;;;;350079;27;90535;-91
2023/02/13 00:20:22;;;;;;;;;;;1.90;99.90;2.50;101323.00;;;;347641;28;83385;-91
2023/02/13 00:20:34;;;;;;;;;;;1.80;99.90;2.50;101314.00;;;;347291;28;90835;-91
2023/02/13 00:20:56;;;;;;;;;;;1.80;99.90;2.60;101317.00;;;;347421;28;82436;-90
2023/02/13 00:21:10;;;;;;;;;;;1.80;99.90;2.50;101318.00;;;;347121;28;92464;-90
2023/02/13 00:21:22;;;;;;;;;;;1.80;99.90;2.50;101328.00;;;;348911;27;83451;-91
2023/02/13 00:21:34;;;;;;;;;;;1.80;99.90;2.40;101315.00;;;;347025;28;90634;-91
2023/02/13 00:21:45;;;;;;;;;;;1.80;99.90;2.40;101317.00;;;;348974;27;83464;-92
2023/02/13 00:21:57;;;;;;;;;;;1.80;99.90;2.50;101321.00;;;;348569;27;90969;-91
2023/02/13 00:22:09;;;;;;;;;;;1.80;99.90;2.40;101317.00;;;;346168;28;82560;-91
2023/02/13 00:22:21;;;;;;;;;;;1.80;99.90;2.40;101325.00;;;;347255;28;91476;-91
2023/02/13 00:22:36;;;;;;;;;;;1.80;99.90;2.40;101318.00;;;;347958;28;82248;-91
2023/02/13 00:22:48;;;;;;;;;;;1.80;99.90;2.40;101316.00;;;;345895;28;91260;-91
2023/02/13 00:23:00;;;;;;;;;;;1.80;99.90;2.30;101322.00;;;;348943;27;82489;-91
2023/02/13 00:23:12;;;;;;;;;;;1.80;99.90;2.30;101317.00;;;;345951;28;92188;-91
2023/02/13 00:23:24;;;;;;;;;;;1.80;99.90;2.30;101311.00;;;;347468;28;83596;-91
2023/02/13 00:23:36;;;;;;;;;;;1.80;99.90;2.50;101323.00;;;;347408;28;90142;-91
2023/02/13 00:23:47;;;;;;;;;;;1.70;99.90;2.50;101321.00;;;;347552;28;83427;-91
2023/02/13 00:23:59;;;;;;;;;;;1.80;99.90;2.50;101319.00;;;;347118;28;90367;-91
2023/02/13 00:24:11;;;;;;;;;;;1.80;99.90;2.50;101317.00;;;;346200;28;83256;-91
2023/02/13 00:24:23;;;;;;;;;;;1.80;99.90;2.50;101313.00;;;;344267;28;91399;-91
2023/02/13 00:24:34;;;;;;;;;;;1.80;99.90;2.50;101318.00;;;;345939;28;83480;-91
2023/02/13 00:24:46;;;;;;;;;;;1.80;99.90;2.50;101317.00;;;;345694;28;91170;-91
2023/02/13 00:24:58;;;;;;;;;;;1.80;99.90;2.40;101314.00;;;;349008;27;82465;-91
2023/02/13 00:25:10;;;;;;;;;;;1.80;99.90;2.50;101316.00;;;;347138;28;91523;-91
2023/02/13 00:25:22;;;;;;;;;;;1.80;99.90;2.60;101319.00;;;;348886;27;82334;-91
2023/02/13 00:25:33;;;;;;;;;;;1.80;99.90;2.70;101316.00;;;;347362;28;91654;-91
2023/02/13 00:25:45;;;;;;;;;;;1.80;99.90;2.50;101319.00;;;;346339;28;82500;-91
2023/02/13 00:25:58;;;;;;;;;;;1.80;99.90;2.50;101320.00;;;;347265;28;91598;-91
2023/02/13 00:26:11;;;;;;;;;;;1.80;99.90;2.40;101318.00;;;;346578;28;82468;-91
2023/02/13 00:26:23;;;;;;;;;;;1.80;99.90;2.50;101312.00;;;;347360;28;90303;-91
2023/02/13 00:26:35;;;;;;;;;;;1.80;99.90;2.50;101320.00;;;;347864;28;83439;-91
2023/02/13 00:26:46;;;;;;;;;;;1.80;99.90;2.50;101323.00;;;;347194;28;90369;-91
2023/02/13 00:26:58;;;;;;;;;;;1.80;99.90;2.50;101322.00;;;;344897;28;83370;-90
2023/02/13 00:27:10;;;;;;;;;;;1.80;99.90;2.60;101322.00;;;;345828;28;91793;-90
2023/02/13 00:27:22;;;;;;;;;;;1.80;99.90;2.70;101318.00;;;;347771;28;82379;-91
2023/02/13 00:27:34;;;;;;;;;;;1.80;99.90;2.70;101324.00;;;;347375;27;90556;-92
2023/02/13 00:27:46;;;;;;;;;;;1.80;99.90;2.60;101317.00;;;;347796;28;83273;-91
2023/02/13 00:27:58;;;;;;;;;;;1.90;99.90;2.60;101308.00;;;;347358;28;91611;-91
2023/02/13 00:28:09;;;;;;;;;;;1.80;99.90;2.70;101323.00;;;;347827;27;83370;-91
2023/02/13 00:28:21;;;;;;;;;;;1.80;99.90;2.70;101317.00;;;;347570;28;90374;-91
2023/02/13 00:28:47;;;;;;;;;;;1.80;99.90;2.70;101318.00;;;;345477;28;82600;-91
2023/02/13 00:29:13;;;;;;;;;;;1.90;99.90;2.60;101322.00;;;;349051;27;89413;-91
2023/02/13 00:29:25;;;;;;;;;;;1.90;99.90;2.50;101317.00;;;;348367;28;82536;-91
2023/02/13 00:29:37;;;;;;;;;;;1.90;99.90;2.50;101314.00;;;;347949;27;91387;-91
2023/02/13 00:29:51;;;;;;;;;;;1.80;99.90;2.50;101326.00;;;;348263;28;82496;-91
2023/02/13 00:30:03;;;;;;;;;;;1.90;99.90;2.50;101325.00;;;;346441;28;87619;-91
2023/02/13 00:30:15;;;;;;;;;;;1.80;99.90;2.60;101328.00;;;;346952;28;82480;-91
2023/02/13 00:30:27;;;;;;;;;;;1.80;99.90;2.60;101322.00;;;;348978;27;90491;-91
2023/02/13 00:30:39;;;;;;;;;;;1.80;99.90;2.60;101327.00;;;;344843;28;82423;-91
2023/02/13 00:30:51;;;;;;;;;;;1.80;99.90;2.60;101315.00;;;;347003;28;91293;-91
2023/02/13 00:31:09;;;;;;;;;;;1.90;99.90;2.60;101315.00;;;;347369;28;82561;-91
2023/02/13 00:31:21;;;;;;;;;;;1.80;99.90;2.50;101316.00;;;;344480;28;90318;-91
2023/02/13 00:31:33;;;;;;;;;;;1.80;99.90;2.50;101321.00;;;;349216;27;83389;-91
2023/02/13 00:31:45;;;;;;;;;;;1.80;99.90;2.50;101322.00;;;;347218;28;92714;-91
2023/02/13 00:31:58;;;;;;;;;;;1.90;99.90;2.50;101318.00;;;;346720;28;83201;-91
2023/02/13 00:32:11;;;;;;;;;;;1.80;99.90;2.40;101318.00;;;;347344;28;90565;-90
2023/02/13 00:32:23;;;;;;;;;;;1.80;99.90;2.40;101324.00;;;;346479;28;83318;-92
2023/02/13 00:32:36;;;;;;;;;;;1.80;99.90;2.40;101320.00;;;;346028;28;91252;-91
2023/02/13 00:32:48;;;;;;;;;;;1.80;99.90;2.40;101319.00;;;;349015;27;83457;-91
2023/02/13 00:33:00;;;;;;;;;;;1.80;99.90;2.30;101314.00;;;;347395;28;91001;-91
2023/02/13 00:33:12;;;;;;;;;;;1.80;99.90;2.30;101317.00;;;;347702;28;82548;-90
2023/02/13 00:33:24;;;;;;;;;;;1.70;99.90;2.30;101319.00;;;;344483;28;89466;-90
2023/02/13 00:33:36;;;;;;;;;;;1.70;99.90;2.30;101322.00;;;;344925;28;83349;-91
2023/02/13 00:33:48;;;;;;;;;;;1.70;99.90;2.30;101316.00;;;;348373;27;91067;-91
2023/02/13 00:34:00;;;;;;;;;;;1.70;99.90;2.30;101318.00;;;;346034;28;82323;-91
2023/02/13 00:34:11;;;;;;;;;;;1.70;99.90;2.40;101318.00;;;;345490;28;91577;-91
2023/02/13 00:34:23;;;;;;;;;;;1.80;99.90;2.40;101327.00;;;;347316;28;82364;-91
2023/02/13 00:34:35;;;;;;;;;;;1.70;99.90;2.30;101329.00;;;;345524;28;92025;-92
2023/02/13 00:34:47;;;;;;;;;;;1.70;99.90;2.30;101326.00;;;;347425;27;83491;-91
2023/02/13 00:34:59;;;;;;;;;;;1.70;99.90;2.30;101319.00;;;;345783;28;90244;-91
2023/02/13 00:35:10;;;;;;;;;;;1.70;99.90;2.30;101320.00;;;;346525;28;82553;-90
2023/02/13 00:35:22;;;;;;;;;;;1.70;99.90;2.40;101321.00;;;;348758;27;90002;-91
2023/02/13 00:35:34;;;;;;;;;;;1.70;99.90;2.40;101320.00;;;;346155;28;83531;-91
2023/02/13 00:35:46;;;;;;;;;;;1.70;99.90;2.30;101325.00;;;;347333;28;88557;-90
2023/02/13 00:36:04;;;;;;;;;;;1.70;99.90;2.30;101324.00;;;;346306;28;83563;-91
2023/02/13 00:36:18;;;;;;;;;;;1.70;99.90;2.30;101312.00;;;;347347;28;90423;-91
2023/02/13 00:36:30;;;;;;;;;;;1.70;99.90;2.30;101313.00;;;;346646;28;82382;-91
2023/02/13 00:36:42;;;;;;;;;;;1.70;99.90;2.30;101325.00;;;;345649;28;90114;-91
2023/02/13 00:36:54;;;;;;;;;;;1.70;99.90;2.20;101321.00;;;;344837;28;83290;-91
2023/02/13 00:37:06;;;;;;;;;;;1.70;99.90;2.30;101327.00;;;;347094;28;91630;-91
2023/02/13 00:37:17;;;;;;;;;;;1.70;99.90;2.20;101329.00;;;;347280;28;83432;-92
2023/02/13 00:37:29;;;;;;;;;;;1.70;99.90;2.20;101321.00;;;;345668;28;91541;-91
2023/02/13 00:37:41;;;;;;;;;;;1.70;99.90;2.20;101330.00;;;;344739;28;83202;-91
2023/02/13 00:37:53;;;;;;;;;;;1.60;99.90;2.20;101322.00;;;;345599;28;91484;-91
2023/02/13 00:38:04;;;;;;;;;;;1.60;99.90;2.20;101326.00;;;;348834;27;82456;-91
2023/02/13 00:38:16;;;;;;;;;;;1.60;99.90;2.20;101323.00;;;;345726;28;91224;-92
2023/02/13 00:38:29;;;;;;;;;;;1.70;99.90;2.20;101332.00;;;;348981;27;83429;-91
2023/02/13 00:38:41;;;;;;;;;;;1.60;99.90;2.10;101327.00;;;;345893;28;91754;-91
2023/02/13 00:38:53;;;;;;;;;;;1.60;99.90;2.10;101323.00;;;;346535;28;82517;-91
2023/02/13 00:39:05;;;;;;;;;;;1.60;99.90;2.10;101321.00;;;;344750;28;90452;-91
2023/02/13 00:39:17;;;;;;;;;;;1.60;99.90;2.10;101328.00;;;;347960;28;83128;-91
2023/02/13 00:39:28;;;;;;;;;;;1.60;99.90;2.20;101332.00;;;;345962;28;91170;-92
2023/02/13 00:39:40;;;;;;;;;;;1.60;99.90;2.20;101308.00;;;;346366;28;83291;-91
2023/02/13 00:39:52;;;;;;;;;;;1.60;99.90;2.30;101321.00;;;;347129;28;92455;-91
2023/02/13 00:40:04;;;;;;;;;;;1.60;99.90;2.30;101327.00;;;;347515;27;83385;-91
2023/02/13 00:40:16;;;;;;;;;;;1.60;99.90;2.20;101327.00;;;;347065;28;91208;-91
2023/02/13 00:40:28;;;;;;;;;;;1.60;99.90;2.20;101326.00;;;;347685;28;83285;-91
2023/02/13 00:40:40;;;;;;;;;;;1.60;99.90;2.20;101327.00;;;;345863;28;90432;-91
2023/02/13 00:40:52;;;;;;;;;;;1.60;99.90;2.10;101335.00;;;;345888;28;84050;-90
2023/02/13 00:41:04;;;;;;;;;;;1.60;99.90;2.10;101333.00;;;;349967;27;91840;-91
2023/02/13 00:41:16;;;;;;;;;;;1.60;99.90;2.10;101329.00;;;;346009;28;83544;-91
2023/02/13 00:41:28;;;;;;;;;;;1.50;99.90;2.10;101333.00;;;;344327;28;91473;-91
2023/02/13 00:41:39;;;;;;;;;;;1.60;99.90;2.10;101331.00;;;;349084;27;83478;-91
2023/02/13 00:41:51;;;;;;;;;;;1.50;99.90;2.20;101327.00;;;;345864;28;89663;-91
2023/02/13 00:42:04;;;;;;;;;;;1.50;99.90;2.30;101333.00;;;;346164;28;83423;-90
2023/02/13 00:42:16;;;;;;;;;;;1.60;99.90;2.40;101323.00;;;;345801;28;91051;-91
2023/02/13 00:42:27;;;;;;;;;;;1.60;99.90;2.40;101327.00;;;;346256;28;83383;-91
2023/02/13 00:42:39;;;;;;;;;;;1.60;99.90;2.50;101332.00;;;;344386;28;91797;-91
2023/02/13 00:42:51;;;;;;;;;;;1.60;99.90;2.40;101325.00;;;;346348;28;82276;-91
2023/02/13 00:43:03;;;;;;;;;;;1.60;99.90;2.40;101322.00;;;;347340;28;89883;-90
2023/02/13 00:43:15;;;;;;;;;;;1.60;99.90;2.30;101325.00;;;;349216;27;82599;-91
2023/02/13 00:43:27;;;;;;;;;;;1.60;99.90;2.30;101318.00;;;;344533;28;91734;-91
2023/02/13 00:43:39;;;;;;;;;;;1.60;99.90;2.30;101324.00;;;;344638;28;83459;-91
2023/02/13 00:43:50;;;;;;;;;;;1.60;99.90;2.30;101325.00;;;;344174;28;91492;-91
2023/02/13 00:44:02;;;;;;;;;;;1.60;99.90;2.30;101333.00;;;;347422;28;82590;-92
2023/02/13 00:44:14;;;;;;;;;;;1.60;99.90;2.20;101329.00;;;;347023;28;91366;-91
2023/02/13 00:44:26;;;;;;;;;;;1.60;99.90;2.20;101329.00;;;;346160;28;83325;-91
2023/02/13 00:44:38;;;;;;;;;;;1.60;99.90;2.20;101326.00;;;;347040;28;91716;-92
2023/02/13 00:44:49;;;;;;;;;;;1.60;99.90;2.20;101334.00;;;;349007;27;82432;-91
2023/02/13 00:45:01;;;;;;;;;;;1.60;99.90;2.10;101325.00;;;;345787;28;90776;-91
2023/02/13 00:45:13;;;;;;;;;;;1.60;99.90;2.10;101328.00;;;;346256;28;83364;-91
2023/02/13 00:45:25;;;;;;;;;;;1.60;99.90;2.10;101319.00;;;;347234;28;90477;-91
2023/02/13 00:45:37;;;;;;;;;;;1.50;99.90;2.20;101330.00;;;;347904;28;83333;-91
2023/02/13 00:45:49;;;;;;;;;;;1.60;99.90;2.20;101329.00;;;;348492;27;92893;-91
2023/02/13 00:46:01;;;;;;;;;;;1.60;99.90;2.20;101328.00;;;;347489;28;83519;-90
2023/02/13 00:46:13;;;;;;;;;;;1.60;99.90;2.20;101331.00;;;;345802;28;90581;-92
2023/02/13 00:46:25;;;;;;;;;;;1.50;99.90;2.20;101328.00;;;;347608;28;83348;-91
2023/02/13 00:46:37;;;;;;;;;;;1.50;99.90;2.20;101327.00;;;;348447;27;91832;-91
2023/02/13 00:46:49;;;;;;;;;;;1.60;99.90;2.20;101324.00;;;;346205;28;83550;-91
2023/02/13 00:47:01;;;;;;;;;;;1.50;99.90;2.20;101326.00;;;;347149;28;90301;-91
2023/02/13 00:47:13;;;;;;;;;;;1.60;99.90;2.30;101331.00;;;;349037;27;82444;-92
2023/02/13 00:47:25;;;;;;;;;;;1.50;99.90;2.20;101332.00;;;;345703;28;90217;-91
2023/02/13 00:47:37;;;;;;;;;;;1.60;99.90;2.20;101335.00;;;;346310;28;83367;-91
2023/02/13 00:47:49;;;;;;;;;;;1.50;99.90;2.30;101325.00;;;;348632;27;93054;-91
2023/02/13 00:48:00;;;;;;;;;;;1.50;99.90;2.30;101326.00;;;;348998;27;83386;-92
2023/02/13 00:48:12;;;;;;;;;;;1.60;99.90;2.30;101326.00;;;;345936;28;91695;-92
2023/02/13 00:48:25;;;;;;;;;;;1.60;99.90;2.40;101323.00;;;;348961;27;82571;-91
2023/02/13 00:48:37;;;;;;;;;;;1.60;99.90;2.40;101326.00;;;;345846;28;91609;-92
2023/02/13 00:48:48;;;;;;;;;;;1.60;99.90;2.30;101334.00;;;;349041;27;83449;-91
2023/02/13 00:49:01;;;;;;;;;;;1.60;99.90;2.30;101326.00;;;;348592;27;90294;-92
2023/02/13 00:49:12;;;;;;;;;;;1.60;99.90;2.30;101316.00;;;;347690;28;82494;-92
2023/02/13 00:49:24;;;;;;;;;;;1.60;99.90;2.30;101324.00;;;;348380;27;91764;-92
2023/02/13 00:49:36;;;;;;;;;;;1.60;99.90;2.30;101326.00;;;;346402;28;82433;-91
2023/02/13 00:49:48;;;;;;;;;;;1.60;99.90;2.30;101332.00;;;;342978;28;92521;-91
2023/02/13 00:50:00;;;;;;;;;;;1.60;99.90;2.30;101333.00;;;;344938;28;83186;-92
2023/02/13 00:50:12;;;;;;;;;;;1.60;99.90;2.30;101326.00;;;;346025;28;91920;-91
2023/02/13 00:50:23;;;;;;;;;;;1.60;99.90;2.30;101323.00;;;;346287;28;83531;-92
2023/02/13 00:50:35;;;;;;;;;;;1.60;99.90;2.20;101334.00;;;;348759;27;90995;-91
2023/02/13 00:50:47;;;;;;;;;;;1.60;99.90;2.30;101332.00;;;;346259;28;82764;-91
2023/02/13 00:50:59;;;;;;;;;;;1.60;99.90;2.30;101327.00;;;;344549;28;90989;-91
2023/02/13 00:51:11;;;;;;;;;;;1.60;99.90;2.30;101328.00;;;;347740;28;83477;-92
2023/02/13 00:51:23;;;;;;;;;;;1.60;99.90;2.30;101325.00;;;;345782;28;91935;-92
2023/02/13 00:51:35;;;;;;;;;;;1.60;99.90;2.30;101328.00;;;;346303;28;82586;-92
2023/02/13 00:51:47;;;;;;;;;;;1.60;99.90;2.40;101327.00;;;;347157;28;92332;-92
2023/02/13 00:51:59;;;;;;;;;;;1.60;99.90;2.30;101333.00;;;;346543;28;83380;-92
2023/02/13 00:52:11;;;;;;;;;;;1.60;99.90;2.30;101339.00;;;;347316;28;91610;-93
2023/02/13 00:52:22;;;;;;;;;;;1.60;99.90;2.30;101330.00;;;;346154;28;83501;-92
2023/02/13 00:52:34;;;;;;;;;;;1.60;99.90;2.30;101326.00;;;;347257;28;91465;-91
2023/02/13 00:52:46;;;;;;;;;;;1.60;99.90;2.30;101325.00;;;;347700;28;83444;-90
2023/02/13 00:52:58;;;;;;;;;;;1.60;99.90;2.20;101330.00;;;;347292;27;88499;-92
2023/02/13 00:53:10;;;;;;;;;;;1.60;99.90;2.20;101328.00;;;;346053;28;83487;-92
2023/02/13 00:53:22;;;;;;;;;;;1.60;99.90;2.30;101315.00;;;;345857;28;91569;-91
2023/02/13 00:53:35;;;;;;;;;;;1.60;99.90;2.30;101327.00;;;;347767;28;83433;-91
2023/02/13 00:53:47;;;;;;;;;;;1.60;99.90;2.30;101320.00;;;;347276;28;91494;-92
2023/02/13 00:53:58;;;;;;;;;;;1.60;99.90;2.30;101334.00;;;;347717;28;83380;-91
2023/02/13 00:54:10;;;;;;;;;;;1.60;99.90;2.30;101324.00;;;;344545;28;90605;-91
2023/02/13 00:54:22;;;;;;;;;;;1.60;99.90;2.20;101324.00;;;;346288;28;82492;-91
2023/02/13 00:54:34;;;;;;;;;;;1.60;99.90;2.20;101325.00;;;;344607;28;91924;-91
2023/02/13 00:54:46;;;;;;;;;;;1.60;99.90;2.20;101323.00;;;;344860;28;83460;-92
2023/02/13 00:54:58;;;;;;;;;;;1.60;99.90;2.20;101325.00;;;;345860;28;90236;-92
2023/02/13 00:55:10;;;;;;;;;;;1.60;99.90;2.10;101328.00;;;;347706;28;83412;-91
2023/02/13 00:55:21;;;;;;;;;;;1.50;99.90;2.10;101334.00;;;;345925;28;90484;-92
2023/02/13 00:55:34;;;;;;;;;;;1.50;99.90;2.10;101328.00;;;;346289;28;83409;-92
2023/02/13 00:55:46;;;;;;;;;;;1.50;99.90;2.10;101325.00;;;;346797;28;92362;-91
2023/02/13 00:55:58;;;;;;;;;;;1.50;99.90;2.20;101329.00;;;;346288;28;83348;-91
2023/02/13 00:56:10;;;;;;;;;;;1.50;99.90;2.20;101333.00;;;;347244;27;90475;-91
2023/02/13 00:56:22;;;;;;;;;;;1.50;99.90;2.10;101325.00;;;;347925;28;82504;-90
2023/02/13 00:56:33;;;;;;;;;;;1.60;99.90;2.10;101324.00;;;;344535;28;91197;-92
2023/02/13 00:56:46;;;;;;;;;;;1.50;99.90;2.10;101324.00;;;;345240;28;83465;-93
2023/02/13 00:56:58;;;;;;;;;;;1.50;99.90;2.00;101333.00;;;;344733;28;91564;-92
2023/02/13 00:57:10;;;;;;;;;;;1.50;99.90;2.00;101319.00;;;;346697;28;83426;-92
2023/02/13 00:57:22;;;;;;;;;;;1.50;99.90;2.10;101325.00;;;;346056;28;91189;-91
2023/02/13 00:57:34;;;;;;;;;;;1.50;99.90;2.10;101330.00;;;;347890;27;83428;-92
2023/02/13 00:57:46;;;;;;;;;;;1.50;99.90;2.10;101334.00;;;;347231;28;91396;-91
2023/02/13 00:57:58;;;;;;;;;;;1.50;99.90;2.20;101316.00;;;;346302;28;83400;-92
2023/02/13 00:58:10;;;;;;;;;;;1.50;99.90;2.20;101329.00;;;;345737;28;92201;-91
2023/02/13 00:58:22;;;;;;;;;;;1.50;99.90;2.30;101331.00;;;;347467;28;83436;-91
2023/02/13 00:58:34;;;;;;;;;;;1.50;99.90;2.30;101329.00;;;;345715;28;91125;-91
2023/02/13 00:58:45;;;;;;;;;;;1.50;99.90;2.20;101336.00;;;;347471;28;83488;-91
2023/02/13 00:58:57;;;;;;;;;;;1.50;99.90;2.30;101324.00;;;;347092;28;91505;-91
2023/02/13 00:59:09;;;;;;;;;;;1.50;99.90;2.40;101331.00;;;;347561;28;83466;-92
2023/02/13 00:59:21;;;;;;;;;;;1.50;99.90;2.40;101331.00;;;;347116;28;91341;-91
2023/02/13 00:59:33;;;;;;;;;;;1.50;99.90;2.20;101325.00;;;;346201;28;82600;-91
2023/02/13 00:59:44;;;;;;;;;;;1.50;99.90;2.20;101337.00;;;;347123;28;92785;-91
2023/02/13 00:59:57;;;;;;;;;;;1.50;99.90;2.30;101339.00;;;;346049;28;83490;-92
2023/02/13 01:00:10;;;;;;;;;;;1.50;99.90;2.40;101331.00;;;;344357;28;91678;-91
2023/02/13 01:00:21;;;;;;;;;;;1.50;99.90;2.40;101326.00;;;;347640;28;82468;-92
2023/02/13 01:00:33;;;;;;;;;;;1.50;99.90;2.40;101323.00;;;;348529;27;90612;-92
2023/02/13 01:00:46;;;;;;;;;;;1.60;99.90;2.40;101327.00;;;;346145;28;82367;-92
2023/02/13 01:00:58;;;;;;;;;;;1.60;99.90;2.40;101323.00;;;;344526;28;91088;-91
2023/02/13 01:01:10;;;;;;;;;;;1.60;99.90;2.30;101331.00;;;;346159;28;82224;-92
2023/02/13 01:01:22;;;;;;;;;;;1.60;99.90;2.20;101331.00;;;;344111;28;91621;-91
2023/02/13 01:01:34;;;;;;;;;;;1.60;99.90;2.20;101332.00;;;;347522;27;83316;-92